createdAt,value
2022-11-04T00:00:00.368Z,0.00
2022-11-04T00:01:00.370Z,0.00
2022-11-04T00:02:00.352Z,0.00
2022-11-04T00:03:00.279Z,0.00
2022-11-04T00:04:00.280Z,0.00
2022-11-04T00:05:00.300Z,0.00
2022-11-04T00:06:00.259Z,0.00
2022-11-04T00:07:00.249Z,0.00
2022-11-04T00:08:00.229Z,0.00
2022-11-04T00:09:00.219Z,0.00
2022-11-04T00:10:00.247Z,0.00
2022-11-04T00:11:00.199Z,0.00
2022-11-04T00:12:00.190Z,0.00
2022-11-04T00:13:00.176Z,0.00
2022-11-04T00:14:00.167Z,0.00
2022-11-04T00:15:00.156Z,0.00
2022-11-04T00:16:00.168Z,0.00
2022-11-04T00:17:00.137Z,0.00
2022-11-04T00:18:00.128Z,0.00
2022-11-04T00:19:00.127Z,0.00
2022-11-04T00:20:00.119Z,0.00
2022-11-04T00:21:00.117Z,0.00
2022-11-04T00:22:00.097Z,0.00
2022-11-04T00:23:00.100Z,0.00
2022-11-04T00:24:00.059Z,0.00
2022-11-04T00:25:00.039Z,0.00
2022-11-04T00:26:00.030Z,0.00
2022-11-04T00:27:00.049Z,0.00
2022-11-04T00:28:00.008Z,0.00
2022-11-04T00:28:59.990Z,0.00
2022-11-04T00:30:00.005Z,0.00
2022-11-04T00:30:59.980Z,0.00
2022-11-04T00:31:59.989Z,0.00
2022-11-04T00:32:59.951Z,0.00
2022-11-04T00:33:59.950Z,0.00
2022-11-04T00:34:59.929Z,0.00
2022-11-04T00:35:59.920Z,0.00
2022-11-04T00:36:59.948Z,0.00
2022-11-04T00:37:59.898Z,0.00
2022-11-04T00:38:59.891Z,0.00
2022-11-04T00:39:59.871Z,0.00
2022-11-04T00:40:59.866Z,0.00
2022-11-04T00:41:59.880Z,0.00
2022-11-04T00:42:59.839Z,0.00
2022-11-04T00:43:59.832Z,0.00
2022-11-04T00:44:59.830Z,0.00
2022-11-04T00:45:59.813Z,0.00
2022-11-04T00:46:59.813Z,0.00
2022-11-04T00:47:59.815Z,0.00
2022-11-04T00:48:59.777Z,0.00
2022-11-04T00:49:59.763Z,0.00
2022-11-04T00:50:59.800Z,0.00
2022-11-04T00:51:59.771Z,0.00
2022-11-04T00:52:59.733Z,0.00
2022-11-04T00:53:59.721Z,0.00
2022-11-04T00:54:59.705Z,0.00
2022-11-04T00:55:59.703Z,0.00
2022-11-04T00:56:59.712Z,0.00
2022-11-04T00:57:59.675Z,0.00
2022-11-04T00:58:59.662Z,0.00
2022-11-04T00:59:59.673Z,0.00
2022-11-04T01:00:59.697Z,0.00
2022-11-04T01:01:59.686Z,0.00
2022-11-04T01:02:59.613Z,0.00
2022-11-04T01:03:59.613Z,0.00
2022-11-04T01:04:59.601Z,0.00
2022-11-04T01:05:59.615Z,0.00
2022-11-04T01:06:59.578Z,0.00
2022-11-04T01:07:59.572Z,0.00
2022-11-04T01:08:59.547Z,0.00
2022-11-04T01:09:59.540Z,0.00
2022-11-04T01:10:59.545Z,0.00
2022-11-04T01:11:59.546Z,0.00
2022-11-04T01:12:59.515Z,0.00
2022-11-04T01:13:59.499Z,0.00
2022-11-04T01:14:59.487Z,0.00
2022-11-04T01:15:59.476Z,0.00
2022-11-04T01:16:59.463Z,0.00
2022-11-04T01:17:59.475Z,0.00
2022-11-04T01:18:59.433Z,0.00
2022-11-04T01:19:59.447Z,0.00
2022-11-04T01:20:59.414Z,0.00
2022-11-04T01:21:59.427Z,0.00
2022-11-04T01:22:59.393Z,0.00
2022-11-04T01:23:59.376Z,0.00
2022-11-04T01:24:59.365Z,0.00
2022-11-04T01:25:59.364Z,0.00
2022-11-04T01:26:59.354Z,0.00
2022-11-04T01:27:59.363Z,0.00
2022-11-04T01:28:59.347Z,0.00
2022-11-04T01:29:59.314Z,0.00
2022-11-04T01:30:59.309Z,0.00
2022-11-04T01:31:59.295Z,0.00
2022-11-04T01:32:59.275Z,0.00
2022-11-04T01:33:59.269Z,0.00
2022-11-04T01:34:59.277Z,0.00
2022-11-04T01:35:59.246Z,0.00
2022-11-04T01:36:59.237Z,0.00
2022-11-04T01:37:59.225Z,0.00
2022-11-04T01:38:59.207Z,0.00
2022-11-04T01:39:59.232Z,0.00
2022-11-04T01:40:59.186Z,0.00
2022-11-04T01:41:59.226Z,0.00
2022-11-04T01:42:59.165Z,0.00
2022-11-04T01:43:59.160Z,0.00
2022-11-04T01:44:59.149Z,0.00
2022-11-04T01:45:59.157Z,0.00
2022-11-04T01:46:59.124Z,0.00
2022-11-04T01:47:59.111Z,0.00
2022-11-04T01:48:59.097Z,0.00
2022-11-04T01:49:59.107Z,0.00
2022-11-04T01:50:59.078Z,0.00
2022-11-04T01:51:59.069Z,0.00
2022-11-04T01:52:59.050Z,0.00
2022-11-04T01:53:59.047Z,0.00
2022-11-04T01:54:59.028Z,0.00
2022-11-04T01:55:59.039Z,0.00
2022-11-04T01:56:59.009Z,0.00
2022-11-04T01:57:59.005Z,0.00
2022-11-04T01:58:59.008Z,0.00
2022-11-04T01:59:58.969Z,0.00
2022-11-04T02:00:58.994Z,0.00
2022-11-04T02:01:59.061Z,0.00
2022-11-04T02:02:58.943Z,0.00
2022-11-04T02:03:58.931Z,0.00
2022-11-04T02:04:58.931Z,0.00
2022-11-04T02:05:58.900Z,0.00
2022-11-04T02:06:58.918Z,0.00
2022-11-04T02:07:58.879Z,0.00
2022-11-04T02:08:58.892Z,0.00
2022-11-04T02:09:58.890Z,0.00
2022-11-04T02:10:58.852Z,0.00
2022-11-04T02:11:58.841Z,0.00
2022-11-04T02:12:58.847Z,0.00
2022-11-04T02:13:58.821Z,0.00
2022-11-04T02:14:58.824Z,0.00
2022-11-04T02:15:58.799Z,0.00
2022-11-04T02:16:58.787Z,0.00
2022-11-04T02:17:58.793Z,0.00
2022-11-04T02:18:58.752Z,0.00
2022-11-04T02:19:58.770Z,0.00
2022-11-04T02:20:58.731Z,0.00
2022-11-04T02:21:58.731Z,0.00
2022-11-04T02:22:58.714Z,0.00
2022-11-04T02:23:58.707Z,0.00
2022-11-04T02:24:58.714Z,0.00
2022-11-04T02:25:58.682Z,0.00
2022-11-04T02:26:58.681Z,0.00
2022-11-04T02:27:58.661Z,0.00
2022-11-04T02:28:58.642Z,0.00
2022-11-04T02:29:58.662Z,0.00
2022-11-04T02:30:58.624Z,0.00
2022-11-04T02:31:58.613Z,0.00
2022-11-04T02:32:58.603Z,0.00
2022-11-04T02:33:58.592Z,0.00
2022-11-04T02:34:58.593Z,0.00
2022-11-04T02:35:58.569Z,0.00
2022-11-04T02:36:58.578Z,0.00
2022-11-04T02:37:58.578Z,0.00
2022-11-04T02:38:58.533Z,0.00
2022-11-04T02:39:58.552Z,0.00
2022-11-04T02:40:58.512Z,0.00
2022-11-04T02:41:58.510Z,0.00
2022-11-04T02:42:58.483Z,0.00
2022-11-04T02:43:58.482Z,0.00
2022-11-04T02:44:58.483Z,0.00
2022-11-04T02:45:58.461Z,0.00
2022-11-04T02:46:58.452Z,0.00
2022-11-04T02:47:58.442Z,0.00
2022-11-04T02:48:58.420Z,0.00
2022-11-04T02:49:58.435Z,0.00
2022-11-04T02:50:58.394Z,0.00
2022-11-04T02:51:58.387Z,0.00
2022-11-04T02:52:58.378Z,0.00
2022-11-04T02:53:58.365Z,0.00
2022-11-04T02:54:58.361Z,0.00
2022-11-04T02:55:58.363Z,0.00
2022-11-04T02:56:58.348Z,0.00
2022-11-04T02:57:58.315Z,0.00
2022-11-04T02:58:58.313Z,0.00
2022-11-04T02:59:58.304Z,0.00
2022-11-04T03:00:58.380Z,0.00
2022-11-04T03:01:58.489Z,0.00
2022-11-04T03:02:58.273Z,0.00
2022-11-04T03:03:58.283Z,0.00
2022-11-04T03:04:58.243Z,0.00
2022-11-04T03:05:58.230Z,0.00
2022-11-04T03:06:58.315Z,0.00
2022-11-04T03:07:58.228Z,0.00
2022-11-04T03:08:58.204Z,0.00
2022-11-04T03:09:58.187Z,0.00
2022-11-04T03:10:58.176Z,0.00
2022-11-04T03:11:58.166Z,0.00
2022-11-04T03:12:58.175Z,0.00
2022-11-04T03:13:58.146Z,0.00
2022-11-04T03:14:58.165Z,0.00
2022-11-04T03:15:58.184Z,0.00
2022-11-04T03:16:58.140Z,0.00
2022-11-04T03:17:58.153Z,0.00
2022-11-04T03:18:58.084Z,0.00
2022-11-04T03:19:58.079Z,0.00
2022-11-04T03:20:58.073Z,0.00
2022-11-04T03:21:58.048Z,0.00
2022-11-04T03:22:58.065Z,0.00
2022-11-04T03:23:58.027Z,0.00
2022-11-04T03:24:58.026Z,0.00
2022-11-04T03:25:58.008Z,0.00
2022-11-04T03:26:58.008Z,0.00
2022-11-04T03:27:58.018Z,0.00
2022-11-04T03:28:57.976Z,0.00
2022-11-04T03:29:57.959Z,0.00
2022-11-04T03:30:57.957Z,0.00
2022-11-04T03:31:57.938Z,0.00
2022-11-04T03:32:57.930Z,0.00
2022-11-04T03:33:57.936Z,0.00
2022-11-04T03:34:57.910Z,0.00
2022-11-04T03:35:57.890Z,0.00
2022-11-04T03:36:57.897Z,0.00
2022-11-04T03:37:57.866Z,0.00
2022-11-04T03:38:57.894Z,0.00
2022-11-04T03:39:57.847Z,0.00
2022-11-04T03:40:57.847Z,0.00
2022-11-04T03:41:57.826Z,0.00
2022-11-04T03:42:57.822Z,0.00
2022-11-04T03:43:57.805Z,0.00
2022-11-04T03:44:57.815Z,0.00
2022-11-04T03:45:57.779Z,0.00
2022-11-04T03:46:57.785Z,0.00
2022-11-04T03:47:57.757Z,0.00
2022-11-04T03:48:57.748Z,0.00
2022-11-04T03:49:57.773Z,0.00
2022-11-04T03:50:57.738Z,0.00
2022-11-04T03:51:57.720Z,0.00
2022-11-04T03:52:57.709Z,0.00
2022-11-04T03:53:57.689Z,0.00
2022-11-04T03:54:57.708Z,0.00
2022-11-04T03:55:57.669Z,0.00
2022-11-04T03:56:57.672Z,0.00
2022-11-04T03:57:57.651Z,0.00
2022-11-04T03:58:57.632Z,0.00
2022-11-04T03:59:57.649Z,0.00
2022-11-04T04:00:57.654Z,0.00
2022-11-04T04:01:57.774Z,0.00
2022-11-04T04:02:57.592Z,0.00
2022-11-04T04:03:57.580Z,0.00
2022-11-04T04:04:57.600Z,0.00
2022-11-04T04:05:57.558Z,0.00
2022-11-04T04:06:57.565Z,0.00
2022-11-04T04:07:57.539Z,0.00
2022-11-04T04:08:57.522Z,0.00
2022-11-04T04:09:57.511Z,0.00
2022-11-04T04:10:57.519Z,0.00
2022-11-04T04:11:57.492Z,0.00
2022-11-04T04:12:57.488Z,0.00
2022-11-04T04:13:57.461Z,0.00
2022-11-04T04:14:57.460Z,0.00
2022-11-04T04:15:57.470Z,0.00
2022-11-04T04:16:57.503Z,0.00
2022-11-04T04:17:57.421Z,0.00
2022-11-04T04:18:58.699Z,0.00
2022-11-04T04:19:57.393Z,0.00
2022-11-04T04:20:57.395Z,0.00
2022-11-04T04:21:57.402Z,0.00
2022-11-04T04:22:57.371Z,0.00
2022-11-04T04:23:57.356Z,0.00
2022-11-04T04:24:57.348Z,0.00
2022-11-04T04:26:05.129Z,0.00
2022-11-04T04:26:57.354Z,0.00
2022-11-04T04:27:57.309Z,0.00
2022-11-04T04:28:57.304Z,0.00
2022-11-04T04:29:57.291Z,0.00
2022-11-04T04:31:00.255Z,0.00
2022-11-04T04:31:57.284Z,0.00
2022-11-04T04:32:57.258Z,0.00
2022-11-04T04:33:57.248Z,0.00
2022-11-04T04:34:57.241Z,0.00
2022-11-04T04:35:57.233Z,0.00
2022-11-04T04:36:57.253Z,0.00
2022-11-04T04:37:57.195Z,0.00
2022-11-04T04:38:57.193Z,0.00
2022-11-04T04:39:57.188Z,0.00
2022-11-04T04:41:57.182Z,0.00
2022-11-04T04:42:57.146Z,0.00
2022-11-04T04:43:57.134Z,0.00
2022-11-04T04:44:57.123Z,0.00
2022-11-04T04:45:57.120Z,0.00
2022-11-04T04:46:57.136Z,0.00
2022-11-04T04:47:57.087Z,0.00
2022-11-04T04:48:57.075Z,0.00
2022-11-04T04:49:57.062Z,0.00
2022-11-04T04:50:57.090Z,0.00
2022-11-04T04:51:57.037Z,0.00
2022-11-04T04:52:57.056Z,0.00
2022-11-04T04:53:57.015Z,0.00
2022-11-04T04:54:57.006Z,0.00
2022-11-04T04:55:56.995Z,0.00
2022-11-04T04:56:56.995Z,0.00
2022-11-04T04:57:56.968Z,0.00
2022-11-04T04:58:56.990Z,0.00
2022-11-04T04:59:56.988Z,0.00
2022-11-04T05:00:56.987Z,0.00
2022-11-04T05:01:56.992Z,0.00
2022-11-04T05:02:56.917Z,0.00
2022-11-04T05:03:56.905Z,0.00
2022-11-04T05:04:56.929Z,0.00
2022-11-04T05:05:58.768Z,0.00
2022-11-04T05:06:56.879Z,0.00
2022-11-04T05:07:56.901Z,0.00
2022-11-04T05:08:57.013Z,0.00
2022-11-04T05:09:56.927Z,0.00
2022-11-04T05:10:56.866Z,0.00
2022-11-04T05:11:56.815Z,0.00
2022-11-04T05:12:56.807Z,0.00
2022-11-04T05:13:56.807Z,0.00
2022-11-04T05:14:56.810Z,0.00
2022-11-04T05:15:56.783Z,0.00
2022-11-04T05:16:56.822Z,0.00
2022-11-04T05:17:57.027Z,0.00
2022-11-04T05:18:57.088Z,0.00
2022-11-04T05:19:57.048Z,0.00
2022-11-04T05:20:57.298Z,0.00
2022-11-04T05:21:57.092Z,0.00
2022-11-04T05:22:57.106Z,0.00
2022-11-04T05:23:57.104Z,0.00
2022-11-04T05:24:56.710Z,0.00
2022-11-04T05:25:56.729Z,0.00
2022-11-04T05:26:56.722Z,0.00
2022-11-04T05:27:56.759Z,0.00
2022-11-04T05:28:56.689Z,0.00
2022-11-04T05:29:56.630Z,0.00
2022-11-04T05:30:56.871Z,0.00
2022-11-04T05:31:56.801Z,0.00
2022-11-04T05:32:59.922Z,0.00
2022-11-04T05:33:57.631Z,0.00
2022-11-04T05:34:56.599Z,0.00
2022-11-04T05:35:56.542Z,0.00
2022-11-04T05:36:56.640Z,0.00
2022-11-04T05:37:56.567Z,0.00
2022-11-04T05:38:56.530Z,0.00
2022-11-04T05:39:56.511Z,0.00
2022-11-04T05:40:56.508Z,0.00
2022-11-04T05:41:56.515Z,0.00
2022-11-04T05:42:56.467Z,0.00
2022-11-04T05:43:56.458Z,0.00
2022-11-04T05:44:56.580Z,0.00
2022-11-04T05:45:56.601Z,0.00
2022-11-04T05:46:56.481Z,0.00
2022-11-04T05:47:56.413Z,0.00
2022-11-04T05:48:56.433Z,0.00
2022-11-04T05:49:56.381Z,0.00
2022-11-04T05:50:56.377Z,0.00
2022-11-04T05:51:56.469Z,0.00
2022-11-04T05:52:56.372Z,0.00
2022-11-04T05:53:56.491Z,0.00
2022-11-04T05:54:56.420Z,0.00
2022-11-04T05:55:56.401Z,0.00
2022-11-04T05:56:56.339Z,0.00
2022-11-04T05:57:56.342Z,0.00
2022-11-04T05:58:56.301Z,0.00
2022-11-04T05:59:56.300Z,0.00
2022-11-04T06:00:56.271Z,0.00
2022-11-04T06:01:56.549Z,0.00
2022-11-04T06:02:56.548Z,0.00
2022-11-04T06:03:56.273Z,0.00
2022-11-04T06:04:56.282Z,0.00
2022-11-04T06:05:56.237Z,0.00
2022-11-04T06:06:56.253Z,0.00
2022-11-04T06:07:56.196Z,0.00
2022-11-04T06:08:56.250Z,0.00
2022-11-04T06:09:56.235Z,0.00
2022-11-04T06:10:56.152Z,0.00
2022-11-04T06:11:56.142Z,0.00
2022-11-04T06:12:56.134Z,0.00
2022-11-04T06:13:56.152Z,0.00
2022-11-04T06:14:56.218Z,0.00
2022-11-04T06:15:56.094Z,0.00
2022-11-04T06:16:56.094Z,0.00
2022-11-04T06:17:56.101Z,0.00
2022-11-04T06:18:59.961Z,0.00
2022-11-04T06:19:57.146Z,0.00
2022-11-04T06:20:56.044Z,0.00
2022-11-04T06:21:56.032Z,0.00
2022-11-04T06:22:56.053Z,0.00
2022-11-04T06:23:56.005Z,0.00
2022-11-04T06:24:56.145Z,0.00
2022-11-04T06:25:55.986Z,0.00
2022-11-04T06:26:56.014Z,5.62
2022-11-04T06:27:55.996Z,5.62
2022-11-04T06:28:56.026Z,5.62
2022-11-04T06:29:55.973Z,5.62
2022-11-04T06:30:55.947Z,5.62
2022-11-04T06:31:56.035Z,5.62
2022-11-04T06:32:55.936Z,5.62
2022-11-04T06:33:55.970Z,5.62
2022-11-04T06:34:55.933Z,11.25
2022-11-04T06:35:55.873Z,11.25
2022-11-04T06:36:55.873Z,11.25
2022-11-04T06:37:55.855Z,11.25
2022-11-04T06:39:01.403Z,11.25
2022-11-04T06:39:56.826Z,11.25
2022-11-04T06:40:55.856Z,11.25
2022-11-04T06:41:57.938Z,16.88
2022-11-04T06:42:55.806Z,16.88
2022-11-04T06:43:55.786Z,16.88
2022-11-04T06:44:55.797Z,16.88
2022-11-04T06:45:55.825Z,16.88
2022-11-04T06:46:55.763Z,16.88
2022-11-04T06:47:55.757Z,16.88
2022-11-04T06:48:55.737Z,16.88
2022-11-04T06:49:55.895Z,16.88
2022-11-04T06:50:55.895Z,16.88
2022-11-04T06:51:55.778Z,22.50
2022-11-04T06:52:55.835Z,22.50
2022-11-04T06:53:55.786Z,22.50
2022-11-04T06:54:55.986Z,22.50
2022-11-04T06:55:56.591Z,22.50
2022-11-04T06:56:55.877Z,22.50
2022-11-04T06:57:55.678Z,22.50
2022-11-04T06:58:55.701Z,22.50
2022-11-04T06:59:55.683Z,22.50
2022-11-04T07:00:55.656Z,22.50
2022-11-04T07:01:55.833Z,22.50
2022-11-04T07:02:55.751Z,22.50
2022-11-04T07:03:55.588Z,22.50
2022-11-04T07:04:55.566Z,28.12
2022-11-04T07:05:55.638Z,28.12
2022-11-04T07:06:55.822Z,28.12
2022-11-04T07:07:55.537Z,28.12
2022-11-04T07:08:56.358Z,28.12
2022-11-04T07:09:55.491Z,28.12
2022-11-04T07:10:55.477Z,33.75
2022-11-04T07:11:55.548Z,39.38
2022-11-04T07:12:55.457Z,39.38
2022-11-04T07:13:55.478Z,39.38
2022-11-04T07:14:55.450Z,39.38
2022-11-04T07:15:55.607Z,39.38
2022-11-04T07:16:55.408Z,45.00
2022-11-04T07:17:55.406Z,50.62
2022-11-04T07:18:55.530Z,56.25
2022-11-04T07:19:55.402Z,56.25
2022-11-04T07:20:55.399Z,67.50
2022-11-04T07:21:55.369Z,61.88
2022-11-04T07:22:55.420Z,61.88
2022-11-04T07:23:55.630Z,61.88
2022-11-04T07:24:55.390Z,67.50
2022-11-04T07:25:55.340Z,73.12
2022-11-04T07:26:55.335Z,67.50
2022-11-04T07:27:58.039Z,73.12
2022-11-04T07:28:56.301Z,84.38
2022-11-04T07:29:55.281Z,84.38
2022-11-04T07:30:55.483Z,78.75
2022-11-04T07:31:55.268Z,73.12
2022-11-04T07:32:55.232Z,84.38
2022-11-04T07:33:55.289Z,73.12
2022-11-04T07:34:55.212Z,90.00
2022-11-04T07:35:58.309Z,95.62
2022-11-04T07:36:55.251Z,73.12
2022-11-04T07:37:55.273Z,84.38
2022-11-04T07:38:55.280Z,118.12
2022-11-04T07:39:55.190Z,106.88
2022-11-04T07:40:55.194Z,106.88
2022-11-04T07:41:59.254Z,112.50
2022-11-04T07:42:55.163Z,118.12
2022-11-04T07:43:55.116Z,118.12
2022-11-04T07:44:55.127Z,123.75
2022-11-04T07:45:55.093Z,135.00
2022-11-04T07:46:55.103Z,129.38
2022-11-04T07:47:55.092Z,135.00
2022-11-04T07:48:55.053Z,135.00
2022-11-04T07:49:55.123Z,140.62
2022-11-04T07:50:55.041Z,135.00
2022-11-04T07:51:55.035Z,118.12
2022-11-04T07:52:55.042Z,101.25
2022-11-04T07:53:55.039Z,95.62
2022-11-04T07:54:54.996Z,95.62
2022-11-04T07:55:54.985Z,90.00
2022-11-04T07:56:54.972Z,84.38
2022-11-04T07:57:54.966Z,90.00
2022-11-04T07:58:54.945Z,95.62
2022-11-04T07:59:54.965Z,90.00
2022-11-04T08:00:54.924Z,90.00
2022-11-04T08:01:55.066Z,90.00
2022-11-04T08:02:54.936Z,95.62
2022-11-04T08:03:54.912Z,106.88
2022-11-04T08:04:54.915Z,106.88
2022-11-04T08:05:54.875Z,118.12
2022-11-04T08:06:54.868Z,123.75
2022-11-04T08:07:54.856Z,123.75
2022-11-04T08:08:54.909Z,129.38
2022-11-04T08:09:54.855Z,129.38
2022-11-04T08:10:54.845Z,123.75
2022-11-04T08:11:54.815Z,129.38
2022-11-04T08:12:54.800Z,135.00
2022-11-04T08:13:54.792Z,135.00
2022-11-04T08:14:54.805Z,140.62
2022-11-04T08:15:54.767Z,151.88
2022-11-04T08:16:54.756Z,168.75
2022-11-04T08:17:54.746Z,180.00
2022-11-04T08:18:54.746Z,191.25
2022-11-04T08:19:54.755Z,208.12
2022-11-04T08:20:54.706Z,230.62
2022-11-04T08:21:54.758Z,225.00
2022-11-04T08:22:54.688Z,236.25
2022-11-04T08:23:54.686Z,241.88
2022-11-04T08:24:54.691Z,247.50
2022-11-04T08:25:54.669Z,247.50
2022-11-04T08:26:54.691Z,225.00
2022-11-04T08:28:00.568Z,208.12
2022-11-04T08:28:55.627Z,208.12
2022-11-04T08:29:54.627Z,202.50
2022-11-04T08:30:54.606Z,208.12
2022-11-04T08:31:54.599Z,191.25
2022-11-04T08:32:54.609Z,180.00
2022-11-04T08:33:54.574Z,180.00
2022-11-04T08:34:54.674Z,185.62
2022-11-04T08:35:54.550Z,180.00
2022-11-04T08:36:54.537Z,180.00
2022-11-04T08:37:54.558Z,180.00
2022-11-04T08:38:54.545Z,185.62
2022-11-04T08:39:54.511Z,196.88
2022-11-04T08:40:59.592Z,196.88
2022-11-04T08:41:57.254Z,202.50
2022-11-04T08:42:54.500Z,202.50
2022-11-04T08:43:54.466Z,196.88
2022-11-04T08:44:54.450Z,202.50
2022-11-04T08:45:54.454Z,213.75
2022-11-04T08:46:54.431Z,236.25
2022-11-04T08:47:54.421Z,247.50
2022-11-04T08:48:54.429Z,281.25
2022-11-04T08:49:54.390Z,303.75
2022-11-04T08:50:54.379Z,343.12
2022-11-04T08:51:54.408Z,320.62
2022-11-04T08:52:54.375Z,320.62
2022-11-04T08:53:54.962Z,343.12
2022-11-04T08:54:57.299Z,360.00
2022-11-04T08:55:54.332Z,354.38
2022-11-04T08:56:54.322Z,348.75
2022-11-04T08:57:54.331Z,343.12
2022-11-04T08:58:54.302Z,348.75
2022-11-04T08:59:54.292Z,371.25
2022-11-04T09:00:54.280Z,405.00
2022-11-04T09:01:54.308Z,410.62
2022-11-04T09:02:54.282Z,410.62
2022-11-04T09:03:54.274Z,405.00
2022-11-04T09:04:54.244Z,410.62
2022-11-04T09:05:54.230Z,410.62
2022-11-04T09:06:54.215Z,405.00
2022-11-04T09:07:54.204Z,399.38
2022-11-04T09:08:54.212Z,388.12
2022-11-04T09:09:54.186Z,376.88
2022-11-04T09:10:54.166Z,371.25
2022-11-04T09:11:54.165Z,343.12
2022-11-04T09:12:54.172Z,331.88
2022-11-04T09:13:54.152Z,326.25
2022-11-04T09:14:54.148Z,326.25
2022-11-04T09:15:54.114Z,320.62
2022-11-04T09:16:54.139Z,320.62
2022-11-04T09:17:54.092Z,331.88
2022-11-04T09:18:54.104Z,343.12
2022-11-04T09:19:54.074Z,348.75
2022-11-04T09:20:54.056Z,292.50
2022-11-04T09:21:54.056Z,320.62
2022-11-04T09:22:54.037Z,331.88
2022-11-04T09:23:54.034Z,399.38
2022-11-04T09:24:54.034Z,376.88
2022-11-04T09:25:54.004Z,365.62
2022-11-04T09:26:53.995Z,388.12
2022-11-04T09:27:53.987Z,421.88
2022-11-04T09:28:53.974Z,466.88
2022-11-04T09:29:53.987Z,421.88
2022-11-04T09:30:53.953Z,376.88
2022-11-04T09:31:53.945Z,405.00
2022-11-04T09:32:53.925Z,416.25
2022-11-04T09:33:53.924Z,399.38
2022-11-04T09:34:53.933Z,450.00
2022-11-04T09:35:53.898Z,466.88
2022-11-04T09:36:53.879Z,472.50
2022-11-04T09:37:53.877Z,568.12
2022-11-04T09:38:53.863Z,630.00
2022-11-04T09:39:54.181Z,646.88
2022-11-04T09:40:53.856Z,388.12
2022-11-04T09:41:53.827Z,663.75
2022-11-04T09:42:53.818Z,658.12
2022-11-04T09:43:53.821Z,669.38
2022-11-04T09:45:20.004Z,686.25
2022-11-04T09:45:54.805Z,697.50
2022-11-04T09:46:53.771Z,697.50
2022-11-04T09:47:53.766Z,720.00
2022-11-04T09:48:53.761Z,759.38
2022-11-04T09:49:53.746Z,742.50
2022-11-04T09:50:53.749Z,753.75
2022-11-04T09:51:55.240Z,776.25
2022-11-04T09:52:53.706Z,810.00
2022-11-04T09:53:53.701Z,731.25
2022-11-04T09:54:53.707Z,264.38
2022-11-04T09:55:53.706Z,607.50
2022-11-04T09:56:53.687Z,511.88
2022-11-04T09:57:53.718Z,315.00
2022-11-04T09:58:53.642Z,804.38
2022-11-04T09:59:53.638Z,736.88
2022-11-04T10:00:53.684Z,534.38
2022-11-04T10:01:53.687Z,433.12
2022-11-04T10:02:53.593Z,483.75
2022-11-04T10:03:53.591Z,787.50
2022-11-04T10:04:53.582Z,950.62
2022-11-04T10:05:53.593Z,978.75
2022-11-04T10:06:53.554Z,967.50
2022-11-04T10:07:53.541Z,354.38
2022-11-04T10:08:53.542Z,905.62
2022-11-04T10:09:53.524Z,556.88
2022-11-04T10:10:53.541Z,483.75
2022-11-04T10:11:53.504Z,579.38
2022-11-04T10:12:53.485Z,568.12
2022-11-04T10:13:53.487Z,607.50
2022-11-04T10:14:53.468Z,1338.75
2022-11-04T10:15:53.477Z,703.12
2022-11-04T10:16:53.446Z,1209.38
2022-11-04T10:17:53.434Z,1091.25
2022-11-04T10:18:53.424Z,1203.75
2022-11-04T10:19:53.414Z,1158.75
2022-11-04T10:20:53.453Z,1113.75
2022-11-04T10:21:53.405Z,1085.62
2022-11-04T10:22:53.385Z,984.38
2022-11-04T10:23:53.375Z,1057.50
2022-11-04T10:24:53.373Z,343.12
2022-11-04T10:25:53.347Z,371.25
2022-11-04T10:26:57.616Z,922.50
2022-11-04T10:27:54.325Z,545.62
2022-11-04T10:28:53.324Z,360.00
2022-11-04T10:29:53.297Z,388.12
2022-11-04T10:30:53.299Z,421.88
2022-11-04T10:31:53.322Z,1051.88
2022-11-04T10:32:53.282Z,1046.25
2022-11-04T10:33:53.259Z,1023.75
2022-11-04T10:34:53.244Z,1046.25
2022-11-04T10:35:53.238Z,1051.88
2022-11-04T10:36:53.274Z,1068.75
2022-11-04T10:37:53.217Z,1063.12
2022-11-04T10:38:53.200Z,1035.00
2022-11-04T10:39:53.198Z,1006.88
2022-11-04T10:40:53.182Z,1068.75
2022-11-04T10:41:53.183Z,1051.88
2022-11-04T10:42:53.180Z,888.75
2022-11-04T10:43:53.150Z,1046.25
2022-11-04T10:44:53.129Z,860.62
2022-11-04T10:45:53.128Z,658.12
2022-11-04T10:46:53.111Z,517.50
2022-11-04T10:47:53.127Z,483.75
2022-11-04T10:48:53.101Z,495.00
2022-11-04T10:50:21.996Z,900.00
2022-11-04T10:50:54.069Z,1029.38
2022-11-04T10:51:53.060Z,748.12
2022-11-04T10:52:53.102Z,534.38
2022-11-04T10:53:53.122Z,635.62
2022-11-04T10:54:53.031Z,1001.25
2022-11-04T10:55:53.022Z,1096.88
2022-11-04T10:56:53.061Z,1046.25
2022-11-04T10:57:52.999Z,877.50
2022-11-04T10:58:53.001Z,787.50
2022-11-04T10:59:52.973Z,517.50
2022-11-04T11:00:53.011Z,933.75
2022-11-04T11:01:53.109Z,517.50
2022-11-04T11:02:52.934Z,483.75
2022-11-04T11:03:52.999Z,450.00
2022-11-04T11:04:52.915Z,444.38
2022-11-04T11:05:52.917Z,405.00
2022-11-04T11:06:52.894Z,365.62
2022-11-04T11:07:52.894Z,365.62
2022-11-04T11:08:52.901Z,883.12
2022-11-04T11:09:54.351Z,922.50
2022-11-04T11:10:52.862Z,922.50
2022-11-04T11:11:52.847Z,888.75
2022-11-04T11:12:52.839Z,866.25
2022-11-04T11:13:52.853Z,866.25
2022-11-04T11:14:52.806Z,843.75
2022-11-04T11:15:52.805Z,838.12
2022-11-04T11:16:52.797Z,838.12
2022-11-04T11:17:52.778Z,832.50
2022-11-04T11:18:52.798Z,843.75
2022-11-04T11:19:52.756Z,843.75
2022-11-04T11:20:52.786Z,838.12
2022-11-04T11:21:52.741Z,832.50
2022-11-04T11:22:52.732Z,849.38
2022-11-04T11:23:52.710Z,821.25
2022-11-04T11:24:52.748Z,894.38
2022-11-04T11:25:52.709Z,933.75
2022-11-04T11:26:52.687Z,956.25
2022-11-04T11:28:00.468Z,967.50
2022-11-04T11:28:58.429Z,995.62
2022-11-04T11:29:53.649Z,1001.25
2022-11-04T11:30:52.659Z,995.62
2022-11-04T11:31:52.622Z,939.38
2022-11-04T11:32:52.621Z,967.50
2022-11-04T11:33:52.632Z,1046.25
2022-11-04T11:34:52.591Z,1175.62
2022-11-04T11:35:52.600Z,1203.75
2022-11-04T11:36:52.573Z,1248.75
2022-11-04T11:37:52.573Z,1333.12
2022-11-04T11:38:52.551Z,1400.62
2022-11-04T11:39:52.534Z,1411.88
2022-11-04T11:41:22.863Z,1389.38
2022-11-04T11:41:53.727Z,1344.38
2022-11-04T11:42:52.512Z,1237.50
2022-11-04T11:43:52.505Z,1175.62
2022-11-04T11:44:52.584Z,1158.75
2022-11-04T11:45:52.486Z,1136.25
2022-11-04T11:46:52.505Z,1136.25
2022-11-04T11:47:52.449Z,916.88
2022-11-04T11:48:52.474Z,1130.62
2022-11-04T11:49:52.429Z,1096.88
2022-11-04T11:50:52.471Z,984.38
2022-11-04T11:51:52.407Z,523.12
2022-11-04T11:52:52.405Z,765.00
2022-11-04T11:53:52.389Z,292.50
2022-11-04T11:54:52.380Z,337.50
2022-11-04T11:55:52.409Z,1001.25
2022-11-04T11:57:12.601Z,1040.62
2022-11-04T12:00:59.115Z,1057.50
2022-11-04T12:01:53.394Z,1108.12
2022-11-04T12:02:52.471Z,1170.00
2022-11-04T12:09:53.210Z,1215.00
2022-11-04T12:10:52.647Z,1147.50
2022-11-04T12:11:52.207Z,1181.25
2022-11-04T12:12:52.200Z,1170.00
2022-11-04T12:13:52.191Z,1170.00
2022-11-04T12:14:52.160Z,1164.38
2022-11-04T12:15:52.141Z,1220.62
2022-11-04T12:16:52.142Z,945.00
2022-11-04T12:17:52.142Z,1057.50
2022-11-04T12:18:52.113Z,540.00
2022-11-04T12:19:52.104Z,320.62
2022-11-04T12:20:52.095Z,360.00
2022-11-04T12:21:52.084Z,759.38
2022-11-04T12:22:52.073Z,984.38
2022-11-04T12:23:52.092Z,1006.88
2022-11-04T12:24:52.054Z,1012.50
2022-11-04T12:25:52.044Z,489.38
2022-11-04T12:26:52.034Z,315.00
2022-11-04T12:27:52.010Z,292.50
2022-11-04T12:28:52.024Z,309.38
2022-11-04T12:29:51.987Z,270.00
2022-11-04T12:30:52.040Z,258.75
2022-11-04T12:31:51.966Z,247.50
2022-11-04T12:32:51.958Z,264.38
2022-11-04T12:33:51.975Z,388.12
2022-11-04T12:34:51.941Z,315.00
2022-11-04T12:35:51.926Z,315.00
2022-11-04T12:36:51.915Z,286.88
2022-11-04T12:37:52.001Z,270.00
2022-11-04T12:38:51.905Z,916.88
2022-11-04T12:39:51.908Z,247.50
2022-11-04T12:41:18.676Z,247.50
2022-11-04T12:42:19.553Z,253.12
2022-11-04T12:42:52.850Z,264.38
2022-11-04T12:43:51.840Z,1006.88
2022-11-04T12:44:51.848Z,1018.12
2022-11-04T12:45:51.839Z,1023.75
2022-11-04T12:46:51.829Z,1029.38
2022-11-04T12:47:51.797Z,855.00
2022-11-04T12:48:56.854Z,1035.00
2022-11-04T12:49:52.773Z,1063.12
2022-11-04T12:50:51.961Z,1074.38
2022-11-04T12:51:51.753Z,360.00
2022-11-04T12:52:51.740Z,1113.75
2022-11-04T12:53:51.731Z,1136.25
2022-11-04T12:54:51.721Z,1164.38
2022-11-04T12:55:51.737Z,556.88
2022-11-04T12:56:51.742Z,450.00
2022-11-04T12:57:51.705Z,478.12
2022-11-04T12:58:51.694Z,495.00
2022-11-04T12:59:51.665Z,534.38
2022-11-04T13:00:51.723Z,1276.88
2022-11-04T13:01:51.723Z,1108.12
2022-11-04T13:02:51.656Z,1125.00